sensor_id;sensor_type;location;lat;lon;timestamp;P1;durP1;ratioP1;P2;durP2;ratioP2
58015;SDS011;43809;52.110;20.964;2022-11-20T00:00:48;59.10;;;28.48;;
58015;SDS011;43809;52.110;20.964;2022-11-20T00:02:48;65.55;;;30.58;;
58015;SDS011;43809;52.110;20.964;2022-11-20T00:04:48;64.30;;;30.20;;
58015;SDS011;43809;52.110;20.964;2022-11-20T00:06:48;59.70;;;30.27;;
58015;SDS011;43809;52.110;20.964;2022-11-20T00:08:50;62.53;;;32.83;;
58015;SDS011;43809;52.110;20.964;2022-11-20T00:10:50;63.58;;;32.20;;
58015;SDS011;43809;52.110;20.964;2022-11-20T00:12:53;70.40;;;31.63;;
58015;SDS011;43809;52.110;20.964;2022-11-20T00:14:53;62.72;;;31.95;;
58015;SDS011;43809;52.110;20.964;2022-11-20T00:16:54;63.40;;;29.45;;
58015;SDS011;43809;52.110;20.964;2022-11-20T00:18:54;66.63;;;30.13;;
58015;SDS011;43809;52.110;20.964;2022-11-20T00:21:04;62.63;;;29.50;;
58015;SDS011;43809;52.110;20.964;2022-11-20T00:23:04;63.47;;;29.48;;
58015;SDS011;43809;52.110;20.964;2022-11-20T00:25:06;63.72;;;30.10;;
58015;SDS011;43809;52.110;20.964;2022-11-20T00:27:07;60.67;;;29.77;;
58015;SDS011;43809;52.110;20.964;2022-11-20T00:29:08;67.03;;;30.77;;
58015;SDS011;43809;52.110;20.964;2022-11-20T00:31:13;65.10;;;30.20;;
58015;SDS011;43809;52.110;20.964;2022-11-20T00:33:13;66.07;;;30.98;;
58015;SDS011;43809;52.110;20.964;2022-11-20T00:35:13;62.00;;;29.17;;
58015;SDS011;43809;52.110;20.964;2022-11-20T00:37:13;62.25;;;30.90;;
58015;SDS011;43809;52.110;20.964;2022-11-20T00:39:14;56.75;;;28.50;;
58015;SDS011;43809;52.110;20.964;2022-11-20T00:41:15;64.50;;;30.17;;
58015;SDS011;43809;52.110;20.964;2022-11-20T00:43:15;61.95;;;29.73;;
58015;SDS011;43809;52.110;20.964;2022-11-20T00:45:15;60.78;;;28.52;;
58015;SDS011;43809;52.110;20.964;2022-11-20T00:47:15;59.35;;;28.50;;
58015;SDS011;43809;52.110;20.964;2022-11-20T00:49:16;65.28;;;30.20;;
58015;SDS011;43809;52.110;20.964;2022-11-20T00:51:17;64.43;;;29.33;;
58015;SDS011;43809;52.110;20.964;2022-11-20T00:53:17;61.28;;;29.80;;
58015;SDS011;43809;52.110;20.964;2022-11-20T00:55:17;62.53;;;28.35;;
58015;SDS011;43809;52.110;20.964;2022-11-20T00:57:20;65.43;;;31.17;;
58015;SDS011;43809;52.110;20.964;2022-11-20T00:59:20;62.45;;;31.23;;
58015;SDS011;43809;52.110;20.964;2022-11-20T01:01:21;65.03;;;29.73;;
58015;SDS011;43809;52.110;20.964;2022-11-20T01:03:27;58.95;;;29.55;;
58015;SDS011;43809;52.110;20.964;2022-11-20T01:05:27;61.80;;;28.35;;
58015;SDS011;43809;52.110;20.964;2022-11-20T01:07:27;59.97;;;29.08;;
58015;SDS011;43809;52.110;20.964;2022-11-20T01:09:27;61.70;;;28.17;;
58015;SDS011;43809;52.110;20.964;2022-11-20T01:11:32;61.70;;;29.90;;
58015;SDS011;43809;52.110;20.964;2022-11-20T01:13:32;58.95;;;28.05;;
58015;SDS011;43809;52.110;20.964;2022-11-20T01:15:38;64.40;;;31.45;;
58015;SDS011;43809;52.110;20.964;2022-11-20T01:17:39;66.82;;;30.48;;
58015;SDS011;43809;52.110;20.964;2022-11-20T01:19:39;59.47;;;29.08;;
58015;SDS011;43809;52.110;20.964;2022-11-20T01:21:42;60.88;;;28.58;;
58015;SDS011;43809;52.110;20.964;2022-11-20T01:23:42;60.13;;;29.02;;
58015;SDS011;43809;52.110;20.964;2022-11-20T01:25:43;61.75;;;29.02;;
58015;SDS011;43809;52.110;20.964;2022-11-20T01:27:43;58.43;;;28.13;;
58015;SDS011;43809;52.110;20.964;2022-11-20T01:29:43;55.80;;;26.80;;
58015;SDS011;43809;52.110;20.964;2022-11-20T01:31:43;63.13;;;28.35;;
58015;SDS011;43809;52.110;20.964;2022-11-20T01:33:45;62.38;;;28.60;;
58015;SDS011;43809;52.110;20.964;2022-11-20T01:35:46;60.95;;;29.65;;
58015;SDS011;43809;52.110;20.964;2022-11-20T01:37:46;63.17;;;28.88;;
58015;SDS011;43809;52.110;20.964;2022-11-20T01:39:46;57.73;;;29.13;;
58015;SDS011;43809;52.110;20.964;2022-11-20T01:41:47;58.53;;;29.40;;
58015;SDS011;43809;52.110;20.964;2022-11-20T01:44:06;65.28;;;31.38;;
58015;SDS011;43809;52.110;20.964;2022-11-20T01:46:13;64.88;;;28.83;;
58015;SDS011;43809;52.110;20.964;2022-11-20T01:48:15;62.80;;;28.80;;
58015;SDS011;43809;52.110;20.964;2022-11-20T01:50:19;61.97;;;28.33;;
58015;SDS011;43809;52.110;20.964;2022-11-20T01:52:36;63.42;;;28.45;;
58015;SDS011;43809;52.110;20.964;2022-11-20T01:54:38;66.00;;;28.02;;
58015;SDS011;43809;52.110;20.964;2022-11-20T01:56:41;70.47;;;30.52;;
58015;SDS011;43809;52.110;20.964;2022-11-20T01:58:44;65.22;;;29.52;;
58015;SDS011;43809;52.110;20.964;2022-11-20T02:00:47;59.97;;;29.52;;
58015;SDS011;43809;52.110;20.964;2022-11-20T02:02:49;63.75;;;30.15;;
58015;SDS011;43809;52.110;20.964;2022-11-20T02:04:51;65.10;;;31.95;;
58015;SDS011;43809;52.110;20.964;2022-11-20T02:08:54;61.58;;;27.52;;
58015;SDS011;43809;52.110;20.964;2022-11-20T02:10:54;63.08;;;29.67;;
58015;SDS011;43809;52.110;20.964;2022-11-20T02:12:54;57.97;;;29.50;;
58015;SDS011;43809;52.110;20.964;2022-11-20T02:15:13;56.90;;;28.98;;
58015;SDS011;43809;52.110;20.964;2022-11-20T02:17:13;57.63;;;29.60;;
58015;SDS011;43809;52.110;20.964;2022-11-20T02:19:26;59.63;;;29.63;;
58015;SDS011;43809;52.110;20.964;2022-11-20T02:23:38;64.30;;;29.85;;
58015;SDS011;43809;52.110;20.964;2022-11-20T02:25:39;62.85;;;29.35;;
58015;SDS011;43809;52.110;20.964;2022-11-20T02:27:41;55.20;;;27.57;;
58015;SDS011;43809;52.110;20.964;2022-11-20T02:29:45;58.22;;;27.58;;
58015;SDS011;43809;52.110;20.964;2022-11-20T02:31:46;58.45;;;28.77;;
58015;SDS011;43809;52.110;20.964;2022-11-20T02:33:47;57.30;;;26.77;;
58015;SDS011;43809;52.110;20.964;2022-11-20T02:35:47;51.28;;;26.55;;
58015;SDS011;43809;52.110;20.964;2022-11-20T02:37:48;51.00;;;24.88;;
58015;SDS011;43809;52.110;20.964;2022-11-20T02:39:49;59.75;;;27.63;;
58015;SDS011;43809;52.110;20.964;2022-11-20T02:41:49;57.70;;;28.90;;
58015;SDS011;43809;52.110;20.964;2022-11-20T02:43:51;54.58;;;27.58;;
58015;SDS011;43809;52.110;20.964;2022-11-20T02:45:52;55.22;;;27.90;;
58015;SDS011;43809;52.110;20.964;2022-11-20T02:47:52;55.60;;;26.48;;
58015;SDS011;43809;52.110;20.964;2022-11-20T02:49:52;51.63;;;26.15;;
58015;SDS011;43809;52.110;20.964;2022-11-20T02:51:52;57.85;;;27.88;;
58015;SDS011;43809;52.110;20.964;2022-11-20T02:53:52;58.05;;;29.17;;
58015;SDS011;43809;52.110;20.964;2022-11-20T02:55:52;60.00;;;27.70;;
58015;SDS011;43809;52.110;20.964;2022-11-20T02:57:53;54.25;;;26.40;;
58015;SDS011;43809;52.110;20.964;2022-11-20T02:59:53;54.30;;;27.73;;
58015;SDS011;43809;52.110;20.964;2022-11-20T03:01:53;59.25;;;27.02;;
58015;SDS011;43809;52.110;20.964;2022-11-20T03:03:53;56.25;;;27.67;;
58015;SDS011;43809;52.110;20.964;2022-11-20T03:05:54;58.53;;;28.70;;
58015;SDS011;43809;52.110;20.964;2022-11-20T03:07:54;60.25;;;27.35;;
58015;SDS011;43809;52.110;20.964;2022-11-20T03:09:55;58.60;;;27.90;;
58015;SDS011;43809;52.110;20.964;2022-11-20T03:11:55;57.95;;;28.95;;
58015;SDS011;43809;52.110;20.964;2022-11-20T03:13:55;58.00;;;27.77;;
58015;SDS011;43809;52.110;20.964;2022-11-20T03:15:55;57.20;;;28.23;;
58015;SDS011;43809;52.110;20.964;2022-11-20T03:17:55;61.90;;;27.80;;
58015;SDS011;43809;52.110;20.964;2022-11-20T03:19:56;57.10;;;28.40;;
58015;SDS011;43809;52.110;20.964;2022-11-20T03:21:56;60.42;;;27.63;;
58015;SDS011;43809;52.110;20.964;2022-11-20T03:23:56;54.63;;;27.02;;
58015;SDS011;43809;52.110;20.964;2022-11-20T03:26:06;63.35;;;29.67;;
58015;SDS011;43809;52.110;20.964;2022-11-20T03:28:07;61.80;;;29.90;;
58015;SDS011;43809;52.110;20.964;2022-11-20T03:30:07;60.83;;;28.17;;
58015;SDS011;43809;52.110;20.964;2022-11-20T03:32:07;56.65;;;28.25;;
58015;SDS011;43809;52.110;20.964;2022-11-20T03:34:08;59.95;;;28.63;;
58015;SDS011;43809;52.110;20.964;2022-11-20T03:36:10;61.70;;;30.98;;
58015;SDS011;43809;52.110;20.964;2022-11-20T03:38:11;58.35;;;29.75;;
58015;SDS011;43809;52.110;20.964;2022-11-20T03:40:11;61.63;;;28.03;;
58015;SDS011;43809;52.110;20.964;2022-11-20T03:42:11;61.83;;;28.98;;
58015;SDS011;43809;52.110;20.964;2022-11-20T03:44:30;59.67;;;28.70;;
58015;SDS011;43809;52.110;20.964;2022-11-20T03:46:30;63.63;;;29.40;;
58015;SDS011;43809;52.110;20.964;2022-11-20T03:48:31;57.90;;;27.95;;
58015;SDS011;43809;52.110;20.964;2022-11-20T03:50:31;66.45;;;29.88;;
58015;SDS011;43809;52.110;20.964;2022-11-20T03:52:31;64.88;;;29.50;;
58015;SDS011;43809;52.110;20.964;2022-11-20T03:54:31;59.35;;;29.67;;
58015;SDS011;43809;52.110;20.964;2022-11-20T03:56:33;62.63;;;31.80;;
58015;SDS011;43809;52.110;20.964;2022-11-20T03:58:36;64.65;;;30.85;;
58015;SDS011;43809;52.110;20.964;2022-11-20T04:00:37;65.95;;;30.80;;
58015;SDS011;43809;52.110;20.964;2022-11-20T04:02:37;62.20;;;31.10;;
58015;SDS011;43809;52.110;20.964;2022-11-20T04:04:37;61.50;;;30.70;;
58015;SDS011;43809;52.110;20.964;2022-11-20T04:06:38;64.03;;;30.80;;
58015;SDS011;43809;52.110;20.964;2022-11-20T04:08:38;64.38;;;32.20;;
58015;SDS011;43809;52.110;20.964;2022-11-20T04:10:38;63.22;;;30.88;;
58015;SDS011;43809;52.110;20.964;2022-11-20T04:12:39;61.78;;;29.40;;
58015;SDS011;43809;52.110;20.964;2022-11-20T04:14:39;67.35;;;30.45;;
58015;SDS011;43809;52.110;20.964;2022-11-20T04:16:39;62.63;;;29.77;;
58015;SDS011;43809;52.110;20.964;2022-11-20T04:18:39;63.35;;;30.55;;
58015;SDS011;43809;52.110;20.964;2022-11-20T04:20:39;67.22;;;30.27;;
58015;SDS011;43809;52.110;20.964;2022-11-20T04:22:39;62.28;;;30.17;;
58015;SDS011;43809;52.110;20.964;2022-11-20T04:24:39;62.95;;;29.23;;
58015;SDS011;43809;52.110;20.964;2022-11-20T04:26:40;64.40;;;31.80;;
58015;SDS011;43809;52.110;20.964;2022-11-20T04:28:40;63.75;;;30.35;;
58015;SDS011;43809;52.110;20.964;2022-11-20T04:30:40;57.15;;;29.48;;
58015;SDS011;43809;52.110;20.964;2022-11-20T04:32:40;62.88;;;29.50;;
58015;SDS011;43809;52.110;20.964;2022-11-20T04:34:40;60.53;;;28.60;;
58015;SDS011;43809;52.110;20.964;2022-11-20T04:36:41;62.42;;;30.73;;
58015;SDS011;43809;52.110;20.964;2022-11-20T04:38:42;61.03;;;30.42;;
58015;SDS011;43809;52.110;20.964;2022-11-20T04:40:42;65.07;;;30.67;;
58015;SDS011;43809;52.110;20.964;2022-11-20T04:42:42;57.65;;;28.40;;
58015;SDS011;43809;52.110;20.964;2022-11-20T04:44:42;62.85;;;29.50;;
58015;SDS011;43809;52.110;20.964;2022-11-20T04:46:42;64.60;;;30.92;;
58015;SDS011;43809;52.110;20.964;2022-11-20T04:48:43;58.58;;;29.90;;
58015;SDS011;43809;52.110;20.964;2022-11-20T04:50:43;54.65;;;27.10;;
58015;SDS011;43809;52.110;20.964;2022-11-20T04:52:43;62.38;;;29.50;;
58015;SDS011;43809;52.110;20.964;2022-11-20T04:54:43;60.28;;;29.90;;
58015;SDS011;43809;52.110;20.964;2022-11-20T04:56:43;58.38;;;29.58;;
58015;SDS011;43809;52.110;20.964;2022-11-20T04:58:43;54.97;;;29.17;;
58015;SDS011;43809;52.110;20.964;2022-11-20T05:00:44;58.72;;;28.20;;
58015;SDS011;43809;52.110;20.964;2022-11-20T05:02:44;53.67;;;27.42;;
58015;SDS011;43809;52.110;20.964;2022-11-20T05:04:44;61.85;;;28.42;;
58015;SDS011;43809;52.110;20.964;2022-11-20T05:06:45;62.25;;;28.15;;
58015;SDS011;43809;52.110;20.964;2022-11-20T05:08:45;49.42;;;24.88;;
58015;SDS011;43809;52.110;20.964;2022-11-20T05:10:46;52.58;;;27.05;;
58015;SDS011;43809;52.110;20.964;2022-11-20T05:12:46;52.58;;;27.55;;
58015;SDS011;43809;52.110;20.964;2022-11-20T05:14:46;57.22;;;28.45;;
58015;SDS011;43809;52.110;20.964;2022-11-20T05:16:46;49.83;;;26.58;;
58015;SDS011;43809;52.110;20.964;2022-11-20T05:18:47;53.10;;;28.73;;
58015;SDS011;43809;52.110;20.964;2022-11-20T05:20:47;60.25;;;28.77;;
58015;SDS011;43809;52.110;20.964;2022-11-20T05:22:56;50.13;;;25.23;;
58015;SDS011;43809;52.110;20.964;2022-11-20T05:24:56;50.55;;;25.23;;
58015;SDS011;43809;52.110;20.964;2022-11-20T05:26:56;44.45;;;21.52;;
58015;SDS011;43809;52.110;20.964;2022-11-20T05:28:56;50.15;;;25.48;;
58015;SDS011;43809;52.110;20.964;2022-11-20T05:31:03;50.08;;;24.42;;
58015;SDS011;43809;52.110;20.964;2022-11-20T05:33:03;47.00;;;24.67;;
58015;SDS011;43809;52.110;20.964;2022-11-20T05:35:04;53.90;;;27.67;;
58015;SDS011;43809;52.110;20.964;2022-11-20T05:37:04;49.58;;;26.08;;
58015;SDS011;43809;52.110;20.964;2022-11-20T05:39:04;60.15;;;28.02;;
58015;SDS011;43809;52.110;20.964;2022-11-20T05:43:10;57.28;;;27.33;;
58015;SDS011;43809;52.110;20.964;2022-11-20T05:45:11;51.80;;;25.00;;
58015;SDS011;43809;52.110;20.964;2022-11-20T05:47:11;52.42;;;26.13;;
58015;SDS011;43809;52.110;20.964;2022-11-20T05:49:11;52.30;;;25.88;;
58015;SDS011;43809;52.110;20.964;2022-11-20T05:51:12;52.42;;;25.25;;
58015;SDS011;43809;52.110;20.964;2022-11-20T05:53:14;57.38;;;26.80;;
58015;SDS011;43809;52.110;20.964;2022-11-20T05:55:14;54.10;;;26.90;;
58015;SDS011;43809;52.110;20.964;2022-11-20T05:57:14;51.90;;;26.60;;
58015;SDS011;43809;52.110;20.964;2022-11-20T05:59:15;55.08;;;27.55;;
58015;SDS011;43809;52.110;20.964;2022-11-20T06:01:19;55.30;;;27.10;;
58015;SDS011;43809;52.110;20.964;2022-11-20T06:03:20;59.22;;;27.15;;
58015;SDS011;43809;52.110;20.964;2022-11-20T06:05:20;50.92;;;25.67;;
58015;SDS011;43809;52.110;20.964;2022-11-20T06:07:23;54.38;;;28.88;;
58015;SDS011;43809;52.110;20.964;2022-11-20T06:09:23;59.17;;;28.42;;
58015;SDS011;43809;52.110;20.964;2022-11-20T06:11:23;52.17;;;27.45;;
58015;SDS011;43809;52.110;20.964;2022-11-20T06:13:24;54.03;;;26.95;;
58015;SDS011;43809;52.110;20.964;2022-11-20T06:15:24;56.80;;;26.48;;
58015;SDS011;43809;52.110;20.964;2022-11-20T06:17:28;58.72;;;28.30;;
58015;SDS011;43809;52.110;20.964;2022-11-20T06:19:28;61.40;;;28.63;;
58015;SDS011;43809;52.110;20.964;2022-11-20T06:21:28;58.60;;;28.73;;
58015;SDS011;43809;52.110;20.964;2022-11-20T06:23:31;59.08;;;29.38;;
58015;SDS011;43809;52.110;20.964;2022-11-20T06:25:32;59.22;;;28.65;;
58015;SDS011;43809;52.110;20.964;2022-11-20T06:27:32;55.78;;;26.00;;
58015;SDS011;43809;52.110;20.964;2022-11-20T06:29:32;61.13;;;28.70;;
58015;SDS011;43809;52.110;20.964;2022-11-20T06:31:32;60.55;;;31.60;;
58015;SDS011;43809;52.110;20.964;2022-11-20T06:33:34;58.80;;;30.95;;
58015;SDS011;43809;52.110;20.964;2022-11-20T06:35:35;60.15;;;29.85;;
58015;SDS011;43809;52.110;20.964;2022-11-20T06:37:35;59.63;;;29.60;;
58015;SDS011;43809;52.110;20.964;2022-11-20T06:39:35;60.03;;;29.35;;
58015;SDS011;43809;52.110;20.964;2022-11-20T06:41:35;56.10;;;27.90;;
58015;SDS011;43809;52.110;20.964;2022-11-20T06:43:35;56.28;;;27.10;;
58015;SDS011;43809;52.110;20.964;2022-11-20T06:45:36;57.25;;;28.08;;
58015;SDS011;43809;52.110;20.964;2022-11-20T06:47:36;61.78;;;27.65;;
58015;SDS011;43809;52.110;20.964;2022-11-20T06:49:36;60.28;;;28.67;;
58015;SDS011;43809;52.110;20.964;2022-11-20T06:51:38;65.97;;;31.40;;
58015;SDS011;43809;52.110;20.964;2022-11-20T06:53:38;58.40;;;28.63;;
58015;SDS011;43809;52.110;20.964;2022-11-20T06:55:41;61.08;;;29.25;;
58015;SDS011;43809;52.110;20.964;2022-11-20T06:57:41;59.65;;;28.15;;
58015;SDS011;43809;52.110;20.964;2022-11-20T06:59:41;57.15;;;29.33;;
58015;SDS011;43809;52.110;20.964;2022-11-20T07:01:42;58.78;;;28.15;;
58015;SDS011;43809;52.110;20.964;2022-11-20T07:03:42;56.22;;;26.85;;
58015;SDS011;43809;52.110;20.964;2022-11-20T07:05:42;55.20;;;27.95;;
58015;SDS011;43809;52.110;20.964;2022-11-20T07:07:43;63.78;;;29.02;;
58015;SDS011;43809;52.110;20.964;2022-11-20T07:09:43;60.95;;;30.80;;
58015;SDS011;43809;52.110;20.964;2022-11-20T07:11:43;62.47;;;29.30;;
58015;SDS011;43809;52.110;20.964;2022-11-20T07:13:44;64.20;;;30.73;;
58015;SDS011;43809;52.110;20.964;2022-11-20T07:15:44;60.53;;;29.02;;
58015;SDS011;43809;52.110;20.964;2022-11-20T07:17:44;57.55;;;28.13;;
58015;SDS011;43809;52.110;20.964;2022-11-20T07:19:44;59.17;;;28.73;;
58015;SDS011;43809;52.110;20.964;2022-11-20T07:21:45;55.90;;;26.00;;
58015;SDS011;43809;52.110;20.964;2022-11-20T07:23:45;63.75;;;29.23;;
58015;SDS011;43809;52.110;20.964;2022-11-20T07:25:45;59.03;;;27.15;;
58015;SDS011;43809;52.110;20.964;2022-11-20T07:27:45;61.47;;;28.85;;
58015;SDS011;43809;52.110;20.964;2022-11-20T07:29:45;56.60;;;27.87;;
58015;SDS011;43809;52.110;20.964;2022-11-20T07:31:45;58.00;;;29.98;;
58015;SDS011;43809;52.110;20.964;2022-11-20T07:33:46;54.00;;;27.35;;
58015;SDS011;43809;52.110;20.964;2022-11-20T07:35:46;59.35;;;28.73;;
58015;SDS011;43809;52.110;20.964;2022-11-20T07:37:46;57.75;;;27.40;;
58015;SDS011;43809;52.110;20.964;2022-11-20T07:39:48;58.53;;;28.98;;
58015;SDS011;43809;52.110;20.964;2022-11-20T07:41:48;58.07;;;28.90;;
58015;SDS011;43809;52.110;20.964;2022-11-20T07:43:48;54.13;;;26.73;;
58015;SDS011;43809;52.110;20.964;2022-11-20T07:45:48;60.35;;;28.58;;
58015;SDS011;43809;52.110;20.964;2022-11-20T07:47:49;58.28;;;28.42;;
58015;SDS011;43809;52.110;20.964;2022-11-20T07:49:49;58.38;;;29.88;;
58015;SDS011;43809;52.110;20.964;2022-11-20T07:51:50;54.35;;;27.40;;
58015;SDS011;43809;52.110;20.964;2022-11-20T07:53:50;56.95;;;26.95;;
58015;SDS011;43809;52.110;20.964;2022-11-20T07:55:51;59.40;;;28.27;;
58015;SDS011;43809;52.110;20.964;2022-11-20T07:57:55;52.95;;;26.80;;
58015;SDS011;43809;52.110;20.964;2022-11-20T07:59:56;60.20;;;28.48;;
58015;SDS011;43809;52.110;20.964;2022-11-20T08:01:56;54.57;;;27.63;;
58015;SDS011;43809;52.110;20.964;2022-11-20T08:03:56;52.65;;;28.08;;
58015;SDS011;43809;52.110;20.964;2022-11-20T08:06:00;56.65;;;28.95;;
58015;SDS011;43809;52.110;20.964;2022-11-20T08:08:00;54.65;;;29.02;;
58015;SDS011;43809;52.110;20.964;2022-11-20T08:10:01;61.30;;;29.40;;
58015;SDS011;43809;52.110;20.964;2022-11-20T08:12:01;57.78;;;29.45;;
58015;SDS011;43809;52.110;20.964;2022-11-20T08:14:20;60.13;;;28.02;;
58015;SDS011;43809;52.110;20.964;2022-11-20T08:16:20;54.17;;;27.83;;
58015;SDS011;43809;52.110;20.964;2022-11-20T08:18:20;59.17;;;28.70;;
58015;SDS011;43809;52.110;20.964;2022-11-20T08:20:20;56.53;;;28.70;;
58015;SDS011;43809;52.110;20.964;2022-11-20T08:22:20;57.25;;;29.13;;
58015;SDS011;43809;52.110;20.964;2022-11-20T08:24:21;58.88;;;28.67;;
58015;SDS011;43809;52.110;20.964;2022-11-20T08:26:21;58.10;;;30.17;;
58015;SDS011;43809;52.110;20.964;2022-11-20T08:28:21;60.13;;;28.40;;
58015;SDS011;43809;52.110;20.964;2022-11-20T08:30:21;63.78;;;30.35;;
58015;SDS011;43809;52.110;20.964;2022-11-20T08:32:21;58.53;;;29.52;;
58015;SDS011;43809;52.110;20.964;2022-11-20T08:34:21;63.70;;;33.60;;
58015;SDS011;43809;52.110;20.964;2022-11-20T08:36:22;57.90;;;29.77;;
58015;SDS011;43809;52.110;20.964;2022-11-20T08:38:23;57.97;;;30.15;;
58015;SDS011;43809;52.110;20.964;2022-11-20T08:40:23;58.83;;;30.07;;
58015;SDS011;43809;52.110;20.964;2022-11-20T08:42:23;59.10;;;30.37;;
58015;SDS011;43809;52.110;20.964;2022-11-20T08:44:28;60.72;;;29.73;;
58015;SDS011;43809;52.110;20.964;2022-11-20T08:46:31;60.08;;;30.38;;
58015;SDS011;43809;52.110;20.964;2022-11-20T08:48:33;62.72;;;30.80;;
58015;SDS011;43809;52.110;20.964;2022-11-20T08:50:35;58.25;;;30.50;;
58015;SDS011;43809;52.110;20.964;2022-11-20T08:54:35;60.05;;;28.70;;
58015;SDS011;43809;52.110;20.964;2022-11-20T08:56:36;63.28;;;29.85;;
58015;SDS011;43809;52.110;20.964;2022-11-20T08:58:36;61.25;;;30.92;;
58015;SDS011;43809;52.110;20.964;2022-11-20T09:00:37;59.17;;;32.38;;
58015;SDS011;43809;52.110;20.964;2022-11-20T09:02:37;64.27;;;32.07;;
58015;SDS011;43809;52.110;20.964;2022-11-20T09:04:37;64.18;;;32.78;;
58015;SDS011;43809;52.110;20.964;2022-11-20T09:06:37;63.17;;;33.63;;
58015;SDS011;43809;52.110;20.964;2022-11-20T09:08:37;64.68;;;33.17;;
58015;SDS011;43809;52.110;20.964;2022-11-20T09:10:38;67.88;;;35.13;;
58015;SDS011;43809;52.110;20.964;2022-11-20T09:12:41;66.43;;;33.28;;
58015;SDS011;43809;52.110;20.964;2022-11-20T09:14:41;59.50;;;31.20;;
58015;SDS011;43809;52.110;20.964;2022-11-20T09:16:50;65.30;;;34.25;;
58015;SDS011;43809;52.110;20.964;2022-11-20T09:18:56;64.22;;;33.58;;
58015;SDS011;43809;52.110;20.964;2022-11-20T09:20:57;64.40;;;31.90;;
58015;SDS011;43809;52.110;20.964;2022-11-20T09:23:00;62.67;;;31.13;;
58015;SDS011;43809;52.110;20.964;2022-11-20T09:25:01;59.92;;;30.90;;
58015;SDS011;43809;52.110;20.964;2022-11-20T09:27:01;60.67;;;33.17;;
58015;SDS011;43809;52.110;20.964;2022-11-20T09:29:01;58.83;;;31.25;;
58015;SDS011;43809;52.110;20.964;2022-11-20T09:31:05;57.80;;;30.52;;
58015;SDS011;43809;52.110;20.964;2022-11-20T09:33:06;57.30;;;30.30;;
58015;SDS011;43809;52.110;20.964;2022-11-20T09:35:06;59.90;;;31.37;;
58015;SDS011;43809;52.110;20.964;2022-11-20T09:37:22;61.22;;;30.58;;
58015;SDS011;43809;52.110;20.964;2022-11-20T09:42:18;56.70;;;29.23;;
58015;SDS011;43809;52.110;20.964;2022-11-20T09:46:28;57.35;;;31.42;;
58015;SDS011;43809;52.110;20.964;2022-11-20T09:54:57;54.75;;;31.52;;
58015;SDS011;43809;52.110;20.964;2022-11-20T09:57:05;59.38;;;30.17;;
58015;SDS011;43809;52.110;20.964;2022-11-20T09:59:13;57.83;;;30.40;;
58015;SDS011;43809;52.110;20.964;2022-11-20T10:01:16;52.25;;;26.05;;
58015;SDS011;43809;52.110;20.964;2022-11-20T10:03:19;54.37;;;27.60;;
58015;SDS011;43809;52.110;20.964;2022-11-20T10:05:23;49.88;;;26.23;;
58015;SDS011;43809;52.110;20.964;2022-11-20T10:09:35;56.25;;;26.17;;
58015;SDS011;43809;52.110;20.964;2022-11-20T10:11:56;54.50;;;26.10;;
58015;SDS011;43809;52.110;20.964;2022-11-20T10:18:17;49.78;;;22.88;;
58015;SDS011;43809;52.110;20.964;2022-11-20T10:24:55;44.42;;;21.17;;
58015;SDS011;43809;52.110;20.964;2022-11-20T10:27:00;42.30;;;22.25;;
58015;SDS011;43809;52.110;20.964;2022-11-20T10:29:15;51.35;;;23.85;;
58015;SDS011;43809;52.110;20.964;2022-11-20T10:33:25;45.65;;;23.30;;
58015;SDS011;43809;52.110;20.964;2022-11-20T10:35:28;51.53;;;24.35;;
58015;SDS011;43809;52.110;20.964;2022-11-20T10:37:31;48.50;;;24.77;;
58015;SDS011;43809;52.110;20.964;2022-11-20T10:41:55;47.40;;;23.40;;
58015;SDS011;43809;52.110;20.964;2022-11-20T10:44:08;42.83;;;21.77;;
58015;SDS011;43809;52.110;20.964;2022-11-20T10:46:14;41.83;;;21.27;;
58015;SDS011;43809;52.110;20.964;2022-11-20T10:48:16;45.13;;;22.27;;
58015;SDS011;43809;52.110;20.964;2022-11-20T10:50:20;42.88;;;20.75;;
58015;SDS011;43809;52.110;20.964;2022-11-20T10:52:25;42.03;;;22.05;;
58015;SDS011;43809;52.110;20.964;2022-11-20T10:54:33;38.30;;;20.20;;
58015;SDS011;43809;52.110;20.964;2022-11-20T10:56:39;41.25;;;20.70;;
58015;SDS011;43809;52.110;20.964;2022-11-20T10:58:53;42.67;;;21.17;;
58015;SDS011;43809;52.110;20.964;2022-11-20T11:03:24;39.42;;;20.63;;
58015;SDS011;43809;52.110;20.964;2022-11-20T11:05:41;40.20;;;21.55;;
58015;SDS011;43809;52.110;20.964;2022-11-20T11:07:43;38.08;;;19.55;;
58015;SDS011;43809;52.110;20.964;2022-11-20T11:09:47;40.35;;;19.90;;
58015;SDS011;43809;52.110;20.964;2022-11-20T11:11:49;39.50;;;20.35;;
58015;SDS011;43809;52.110;20.964;2022-11-20T11:13:50;35.90;;;18.73;;
58015;SDS011;43809;52.110;20.964;2022-11-20T11:15:50;37.63;;;19.48;;
58015;SDS011;43809;52.110;20.964;2022-11-20T11:17:51;34.88;;;17.83;;
58015;SDS011;43809;52.110;20.964;2022-11-20T11:22:24;32.78;;;17.55;;
58015;SDS011;43809;52.110;20.964;2022-11-20T11:24:25;32.57;;;16.73;;
58015;SDS011;43809;52.110;20.964;2022-11-20T11:26:25;38.72;;;19.73;;
58015;SDS011;43809;52.110;20.964;2022-11-20T11:28:26;35.80;;;19.45;;
58015;SDS011;43809;52.110;20.964;2022-11-20T11:30:28;38.03;;;19.83;;
58015;SDS011;43809;52.110;20.964;2022-11-20T11:32:30;33.95;;;18.13;;
58015;SDS011;43809;52.110;20.964;2022-11-20T11:34:30;38.30;;;19.63;;
58015;SDS011;43809;52.110;20.964;2022-11-20T11:36:32;37.45;;;18.95;;
58015;SDS011;43809;52.110;20.964;2022-11-20T11:38:40;32.10;;;19.08;;
58015;SDS011;43809;52.110;20.964;2022-11-20T11:40:40;35.33;;;18.55;;
58015;SDS011;43809;52.110;20.964;2022-11-20T11:42:41;29.38;;;16.30;;
58015;SDS011;43809;52.110;20.964;2022-11-20T11:44:45;32.15;;;17.45;;
58015;SDS011;43809;52.110;20.964;2022-11-20T11:47:08;28.17;;;16.08;;
58015;SDS011;43809;52.110;20.964;2022-11-20T11:49:18;34.30;;;18.23;;
58015;SDS011;43809;52.110;20.964;2022-11-20T11:51:22;34.58;;;19.35;;
58015;SDS011;43809;52.110;20.964;2022-11-20T11:53:23;31.67;;;16.83;;
58015;SDS011;43809;52.110;20.964;2022-11-20T11:55:26;32.50;;;17.40;;
58015;SDS011;43809;52.110;20.964;2022-11-20T11:58:09;33.25;;;19.33;;
58015;SDS011;43809;52.110;20.964;2022-11-20T12:01:51;31.70;;;17.88;;
58015;SDS011;43809;52.110;20.964;2022-11-20T12:06:06;32.80;;;18.17;;
58015;SDS011;43809;52.110;20.964;2022-11-20T12:10:35;33.67;;;17.92;;
58015;SDS011;43809;52.110;20.964;2022-11-20T12:12:38;34.70;;;19.13;;
58015;SDS011;43809;52.110;20.964;2022-11-20T12:14:41;37.50;;;19.70;;
58015;SDS011;43809;52.110;20.964;2022-11-20T12:16:42;33.15;;;17.88;;
58015;SDS011;43809;52.110;20.964;2022-11-20T12:18:43;31.60;;;17.63;;
58015;SDS011;43809;52.110;20.964;2022-11-20T12:22:59;32.58;;;16.75;;
58015;SDS011;43809;52.110;20.964;2022-11-20T12:31:18;29.83;;;16.98;;
58015;SDS011;43809;52.110;20.964;2022-11-20T12:33:27;29.33;;;16.65;;
58015;SDS011;43809;52.110;20.964;2022-11-20T12:35:44;31.38;;;16.38;;
58015;SDS011;43809;52.110;20.964;2022-11-20T12:40:17;30.20;;;16.63;;